Nearby METAR Reports

 

KRYN - Tucson/Ryan Fld, Arizona, USA
Distance from station: SSW 16mi, 26km
Updated: Sun, 03-Mar-2024 8:56am MST
Clear
Clear
 Wind from WNW
Wind: WNW 7 mph , 11 km/h
Temperature: 59°F , 15°C
Dew Point: 25°F , -4°C
Humidity: 27%
Barometer: 30.02 inHg , 1016.6 hPa
Clouds: Clear
Visibility: 10 miles , 16 km
2024/03/03 15:56 KRYN 031556Z 29006KT 10SM CLR 15/M04 A3002
KTUS - Tucson, Arizona, USA
Distance from station: SSE 18mi, 28km
Updated: Sun, 03-Mar-2024 8:53am MST
Clear
Clear
 Wind from calm
Wind: Calm
Temperature: 57°F , 14°C
Dew Point: 28°F , -2°C
Humidity: 33%
Barometer: 30.04 inHg , 1017.3 hPa
Clouds: Clear
Visibility: 10 miles , 16 km
2024/03/03 15:53 KTUS 031553Z 00000KT 10SM CLR 14/M02 A3004 RMK AO2 SLP145 T01441022 $
 
KDMA - Davis/Tucson, Arizona, USA
Distance from station: SE 18mi, 29km
Updated: Sun, 03-Mar-2024 8:55am MST
Clear
Clear
 Wind from calm
Wind: Calm
Temperature: 57°F , 14°C
Dew Point: 28°F , -2°C
Humidity: 33%
Barometer: 30.01 inHg , 1016.3 hPa
Clouds: Clear
Visibility: 10 miles , 16 km
2024/03/03 15:55 KDMA 031555Z AUTO 00000KT 10SM CLR 14/M02 A3001 RMK AO2 SLP181 T01441021
KCGZ - Casa Granda, Arizona, USA
Distance from station: NW 57mi, 92km
Updated: Sun, 03-Mar-2024 8:56am MST
Clear
Clear
 Wind from calm
Wind: Calm
Temperature: 57°F , 14°C
Dew Point: 37°F , 3°C
Humidity: 48%
Barometer: 30.02 inHg , 1016.6 hPa
Clouds: Clear
Visibility: 10 miles , 16 km
2024/03/03 15:56 KCGZ 031556Z AUTO 00000KT 10SM CLR 14/03 A3002 RMK AO2 SLP162 T01390033 PNO $
 
KALK - Pioneer Airfield, Arizona, USA
Distance from station: SE 65mi, 104km
Updated: Sun, 03-Mar-2024 7:56am MST
NOT Current
Clear
Clear
 Wind from SSW
Wind: SSW 17 mph , 28 km/h, Gust: 30 mph , 48 km/h
Temperature: 55°F , 13°C
Dew Point: 16°F , -9°C
Humidity: 21%
Barometer: 30.03 inHg , 1016.9 hPa
Clouds: Clear
Visibility: 10 miles , 16 km
2024/03/03 14:56 KALK 031456Z AUTO 21015G26KT 10SM CLR 13/M09 A3003 RMK AO2 PK WND 22028/1427 SLP104 T01281094 53004
KOLS - Nogales, Arizona, USA
Distance from station: S 67mi, 108km
Updated: Sun, 03-Mar-2024 8:54am MST
Clear
Clear
 Wind from S
Wind: S 9 mph , 15 km/h
Temperature: 57°F , 14°C
Dew Point: 21°F , -6°C
Humidity: 25%
Barometer: 30.04 inHg , 1017.3 hPa
Clouds: Clear
Visibility: 10 miles , 16 km
2024/03/03 15:54 KOLS 031554Z AUTO 17008KT 10SM CLR 14/M06 A3004 RMK AO2 SLP134 T01441056 $
 
KFHU - Fort Huachuca, Arizona, USA
Distance from station: SE 69mi, 110km
Updated: Sun, 03-Mar-2024 8:55am MST
Clear
Clear
 Wind from NE
Wind: NE 6 mph , 9 km/h
Temperature: 55°F , 13°C
Dew Point: 16°F , -9°C
Humidity: 21%
Barometer: 30.06 inHg , 1017.9 hPa
Clouds: Clear
Visibility: 10 miles , 16 km
2024/03/03 15:55 KFHU 031555Z AUTO 04005KT 10SM CLR 13/M09 A3006 RMK AO2 SLP145 T01281090
KIWA - Chandler/Mesa, Arizona, USA
Distance from station: NNW 73mi, 117km
Updated: Sun, 03-Mar-2024 8:50am MST
Clear
Clear
 Wind from SE
Wind: SE 5 mph , 7 km/h
Temperature: 57°F , 14°C
Dew Point: 37°F , 3°C
Humidity: 48%
Barometer: 30.02 inHg , 1016.6 hPa
Clouds: Clear
Visibility: 10 miles , 16 km
2024/03/03 15:50 KIWA 031550Z 14004KT 10SM CLR 14/03 A3002